SBOSBO SHV / KSHV
Speedbird OnlineSpeedbird Online SHV / KSHV

Shreveport Regional Airport
15:10 23°C

Location Shreveport, United States
Latitude: 32.446602
Longitude: -93.8256
Local Time 15:10 on 23 Feb 2024
UTC -6 hours (America/Chicago)
Currency £1 equals USD 1.27
METAR KSHV 232056Z 32012G19KT 10SM FEW070 24/M01 A2996 RMK SLPNO
TAF KSHV 231739Z 2318/2418 31013KT P6SM SKC FM240000 VRB05KT P6SM SKC FM241500 31008KT P6SM SKC
Weather As Of 23 Feb 2024 15:10
Description Few clouds
Wind 30 km/h from North (360°)
Cloud Cover 20%
Precipitation Rain: none, Snow: none
Sunrise 06:50
Sunset 18:07
NOTAM 28 active NOTAM
Rotations During the last 90 days there were
68 flights from DFW
79 flights to DFW
Web Wikipedia
Codes IATA: SHV
ICAO: KSHV
Altitude 79 Meter / 258 Feet
Distance 7,498 KM / 4,659 Miles
from London.
Runways
RunwayLength (m)Surface
061890Asphalt
142545Asphalt
241890Asphalt
322545Asphalt
Radio
TypeDescriptionFrequency
A/DAPP/DEP119.9
ATISATIS128.45
CLDCLNC DEL124.65
GNDGND121.9
TWRTWR121.4
UNICUNICOM122.95
Live ATC



Support Speedbird Online

© 2017-2024 Speedbird Online